sensor_id;sensor_type;location;lat;lon;timestamp;temperature;humidity
21722;DHT22;11023;48.274;7.794;2023-05-07T00:01:49;14.00;99.90
21722;DHT22;11023;48.274;7.794;2023-05-07T00:04:15;14.00;99.90
21722;DHT22;11023;48.274;7.794;2023-05-07T00:06:41;14.00;99.90
21722;DHT22;11023;48.274;7.794;2023-05-07T00:09:07;13.90;99.90
21722;DHT22;11023;48.274;7.794;2023-05-07T00:11:33;13.90;99.90
21722;DHT22;11023;48.274;7.794;2023-05-07T00:13:58;13.90;99.90
21722;DHT22;11023;48.274;7.794;2023-05-07T00:16:24;14.00;99.90
21722;DHT22;11023;48.274;7.794;2023-05-07T00:18:50;14.00;99.90
21722;DHT22;11023;48.274;7.794;2023-05-07T00:21:16;14.00;99.90
21722;DHT22;11023;48.274;7.794;2023-05-07T00:23:42;13.90;99.90
21722;DHT22;11023;48.274;7.794;2023-05-07T00:26:07;13.90;99.90
21722;DHT22;11023;48.274;7.794;2023-05-07T00:28:33;13.90;99.90
21722;DHT22;11023;48.274;7.794;2023-05-07T00:30:58;13.90;99.90
21722;DHT22;11023;48.274;7.794;2023-05-07T00:33:24;13.90;99.90
21722;DHT22;11023;48.274;7.794;2023-05-07T00:35:52;13.90;99.90
21722;DHT22;11023;48.274;7.794;2023-05-07T00:38:19;13.90;99.90
21722;DHT22;11023;48.274;7.794;2023-05-07T00:40:45;13.90;99.90
21722;DHT22;11023;48.274;7.794;2023-05-07T00:43:11;13.80;99.90
21722;DHT22;11023;48.274;7.794;2023-05-07T00:45:38;13.80;99.90
21722;DHT22;11023;48.274;7.794;2023-05-07T00:48:04;13.80;99.90
21722;DHT22;11023;48.274;7.794;2023-05-07T00:50:31;13.70;99.90
21722;DHT22;11023;48.274;7.794;2023-05-07T00:52:58;13.70;99.90
21722;DHT22;11023;48.274;7.794;2023-05-07T00:55:24;13.70;99.90
21722;DHT22;11023;48.274;7.794;2023-05-07T00:57:50;13.70;99.90
21722;DHT22;11023;48.274;7.794;2023-05-07T01:00:16;13.70;99.90
21722;DHT22;11023;48.274;7.794;2023-05-07T01:02:42;13.70;99.90
21722;DHT22;11023;48.274;7.794;2023-05-07T01:05:09;13.70;99.90
21722;DHT22;11023;48.274;7.794;2023-05-07T01:07:37;13.60;99.90
21722;DHT22;11023;48.274;7.794;2023-05-07T01:10:05;13.60;99.90
21722;DHT22;11023;48.274;7.794;2023-05-07T01:12:31;13.50;99.90
21722;DHT22;11023;48.274;7.794;2023-05-07T01:14:58;13.50;99.90
21722;DHT22;11023;48.274;7.794;2023-05-07T01:17:24;13.50;99.90
21722;DHT22;11023;48.274;7.794;2023-05-07T01:19:50;13.40;99.90
21722;DHT22;11023;48.274;7.794;2023-05-07T01:22:33;13.40;99.90
21722;DHT22;11023;48.274;7.794;2023-05-07T01:25:00;13.40;99.90
21722;DHT22;11023;48.274;7.794;2023-05-07T01:27:27;13.40;99.90
21722;DHT22;11023;48.274;7.794;2023-05-07T01:29:53;13.40;99.90
21722;DHT22;11023;48.274;7.794;2023-05-07T01:35:13;13.30;99.90
21722;DHT22;11023;48.274;7.794;2023-05-07T01:37:41;13.30;99.90
21722;DHT22;11023;48.274;7.794;2023-05-07T01:40:07;13.30;99.90
21722;DHT22;11023;48.274;7.794;2023-05-07T01:42:33;13.30;99.90
21722;DHT22;11023;48.274;7.794;2023-05-07T01:44:59;13.20;99.90
21722;DHT22;11023;48.274;7.794;2023-05-07T01:47:25;13.20;99.90
21722;DHT22;11023;48.274;7.794;2023-05-07T01:49:51;13.20;99.90
21722;DHT22;11023;48.274;7.794;2023-05-07T01:52:17;13.20;99.90
21722;DHT22;11023;48.274;7.794;2023-05-07T01:54:43;13.20;99.90
21722;DHT22;11023;48.274;7.794;2023-05-07T01:57:08;13.20;99.90
21722;DHT22;11023;48.274;7.794;2023-05-07T01:59:34;13.20;99.90
21722;DHT22;11023;48.274;7.794;2023-05-07T02:02:00;13.10;99.90
21722;DHT22;11023;48.274;7.794;2023-05-07T02:04:26;13.10;99.90
21722;DHT22;11023;48.274;7.794;2023-05-07T02:06:51;13.00;99.90
21722;DHT22;11023;48.274;7.794;2023-05-07T02:09:18;13.00;99.90
21722;DHT22;11023;48.274;7.794;2023-05-07T02:11:44;13.00;99.90
21722;DHT22;11023;48.274;7.794;2023-05-07T02:14:10;13.00;99.90
21722;DHT22;11023;48.274;7.794;2023-05-07T02:16:35;12.90;99.90
21722;DHT22;11023;48.274;7.794;2023-05-07T02:19:01;12.90;99.90
21722;DHT22;11023;48.274;7.794;2023-05-07T02:21:27;12.80;99.90
21722;DHT22;11023;48.274;7.794;2023-05-07T02:23:53;12.80;99.90
21722;DHT22;11023;48.274;7.794;2023-05-07T02:26:19;12.80;99.90
21722;DHT22;11023;48.274;7.794;2023-05-07T02:28:46;12.80;99.90
21722;DHT22;11023;48.274;7.794;2023-05-07T02:31:12;12.70;99.90
21722;DHT22;11023;48.274;7.794;2023-05-07T02:33:38;12.80;99.90
21722;DHT22;11023;48.274;7.794;2023-05-07T02:36:08;12.70;99.90
21722;DHT22;11023;48.274;7.794;2023-05-07T02:38:35;12.70;99.90
21722;DHT22;11023;48.274;7.794;2023-05-07T02:41:00;12.60;99.90
21722;DHT22;11023;48.274;7.794;2023-05-07T02:43:26;12.60;99.90
21722;DHT22;11023;48.274;7.794;2023-05-07T02:46:21;12.60;99.90
21722;DHT22;11023;48.274;7.794;2023-05-07T02:48:47;12.60;99.90
21722;DHT22;11023;48.274;7.794;2023-05-07T02:51:13;12.60;99.90
21722;DHT22;11023;48.274;7.794;2023-05-07T02:53:39;12.50;99.90
21722;DHT22;11023;48.274;7.794;2023-05-07T02:56:05;12.50;99.90
21722;DHT22;11023;48.274;7.794;2023-05-07T02:58:31;12.50;99.90
21722;DHT22;11023;48.274;7.794;2023-05-07T03:00:57;12.50;99.90
21722;DHT22;11023;48.274;7.794;2023-05-07T03:03:23;12.50;99.90
21722;DHT22;11023;48.274;7.794;2023-05-07T03:05:48;12.50;99.90
21722;DHT22;11023;48.274;7.794;2023-05-07T03:08:14;12.50;99.90
21722;DHT22;11023;48.274;7.794;2023-05-07T03:10:40;12.50;99.90
21722;DHT22;11023;48.274;7.794;2023-05-07T03:13:05;12.50;99.90
21722;DHT22;11023;48.274;7.794;2023-05-07T03:15:31;12.50;99.90
21722;DHT22;11023;48.274;7.794;2023-05-07T03:17:57;12.50;99.90
21722;DHT22;11023;48.274;7.794;2023-05-07T03:20:23;12.50;99.90
21722;DHT22;11023;48.274;7.794;2023-05-07T03:22:48;12.40;99.90
21722;DHT22;11023;48.274;7.794;2023-05-07T03:25:14;12.40;99.90
21722;DHT22;11023;48.274;7.794;2023-05-07T03:27:40;12.40;99.90
21722;DHT22;11023;48.274;7.794;2023-05-07T03:30:08;12.40;99.90
21722;DHT22;11023;48.274;7.794;2023-05-07T03:32:34;12.40;99.90
21722;DHT22;11023;48.274;7.794;2023-05-07T03:35:01;12.30;99.90
21722;DHT22;11023;48.274;7.794;2023-05-07T03:37:26;12.30;99.90
21722;DHT22;11023;48.274;7.794;2023-05-07T03:39:52;12.30;99.90
21722;DHT22;11023;48.274;7.794;2023-05-07T03:42:17;12.30;99.90
21722;DHT22;11023;48.274;7.794;2023-05-07T03:44:43;12.20;99.90
21722;DHT22;11023;48.274;7.794;2023-05-07T03:47:09;12.20;99.90
21722;DHT22;11023;48.274;7.794;2023-05-07T03:49:35;12.20;99.90
21722;DHT22;11023;48.274;7.794;2023-05-07T03:52:01;12.20;99.90
21722;DHT22;11023;48.274;7.794;2023-05-07T03:54:27;12.20;99.90
21722;DHT22;11023;48.274;7.794;2023-05-07T03:56:52;12.20;99.90
21722;DHT22;11023;48.274;7.794;2023-05-07T03:59:18;12.10;99.90
21722;DHT22;11023;48.274;7.794;2023-05-07T04:01:43;12.10;99.90
21722;DHT22;11023;48.274;7.794;2023-05-07T04:04:10;12.10;99.90
21722;DHT22;11023;48.274;7.794;2023-05-07T04:06:35;12.10;99.90
21722;DHT22;11023;48.274;7.794;2023-05-07T04:09:01;12.10;99.90
21722;DHT22;11023;48.274;7.794;2023-05-07T04:11:27;12.10;99.90
21722;DHT22;11023;48.274;7.794;2023-05-07T04:13:53;12.20;99.90
21722;DHT22;11023;48.274;7.794;2023-05-07T04:16:18;12.10;99.90
21722;DHT22;11023;48.274;7.794;2023-05-07T04:18:44;12.10;99.90
21722;DHT22;11023;48.274;7.794;2023-05-07T04:21:16;12.10;99.90
21722;DHT22;11023;48.274;7.794;2023-05-07T04:23:42;12.10;99.90
21722;DHT22;11023;48.274;7.794;2023-05-07T04:26:08;12.00;99.90
21722;DHT22;11023;48.274;7.794;2023-05-07T04:28:34;12.00;99.90
21722;DHT22;11023;48.274;7.794;2023-05-07T04:31:00;12.00;99.90
21722;DHT22;11023;48.274;7.794;2023-05-07T04:33:26;12.00;99.90
21722;DHT22;11023;48.274;7.794;2023-05-07T04:35:51;12.00;99.90
21722;DHT22;11023;48.274;7.794;2023-05-07T04:38:17;12.00;99.90
21722;DHT22;11023;48.274;7.794;2023-05-07T04:40:44;12.00;99.90
21722;DHT22;11023;48.274;7.794;2023-05-07T04:43:10;12.00;99.90
21722;DHT22;11023;48.274;7.794;2023-05-07T04:45:36;12.00;99.90
21722;DHT22;11023;48.274;7.794;2023-05-07T04:48:02;12.10;99.90
21722;DHT22;11023;48.274;7.794;2023-05-07T04:50:27;12.20;99.90
21722;DHT22;11023;48.274;7.794;2023-05-07T04:52:53;12.20;99.90
21722;DHT22;11023;48.274;7.794;2023-05-07T04:55:19;12.30;99.90
21722;DHT22;11023;48.274;7.794;2023-05-07T04:57:44;12.30;99.90
21722;DHT22;11023;48.274;7.794;2023-05-07T05:00:11;12.40;99.90
21722;DHT22;11023;48.274;7.794;2023-05-07T05:02:39;12.40;99.90
21722;DHT22;11023;48.274;7.794;2023-05-07T05:05:06;12.50;99.90
21722;DHT22;11023;48.274;7.794;2023-05-07T05:07:32;12.50;99.90
21722;DHT22;11023;48.274;7.794;2023-05-07T05:09:57;12.60;99.90
21722;DHT22;11023;48.274;7.794;2023-05-07T05:12:23;12.70;99.90
21722;DHT22;11023;48.274;7.794;2023-05-07T05:14:49;12.70;99.90
21722;DHT22;11023;48.274;7.794;2023-05-07T05:17:15;12.80;99.90
21722;DHT22;11023;48.274;7.794;2023-05-07T05:19:41;12.90;99.90
21722;DHT22;11023;48.274;7.794;2023-05-07T05:22:06;12.90;99.90
21722;DHT22;11023;48.274;7.794;2023-05-07T05:24:32;12.90;99.90
21722;DHT22;11023;48.274;7.794;2023-05-07T05:26:57;13.00;99.90
21722;DHT22;11023;48.274;7.794;2023-05-07T05:29:25;13.00;99.90
21722;DHT22;11023;48.274;7.794;2023-05-07T05:31:50;13.00;99.90
21722;DHT22;11023;48.274;7.794;2023-05-07T05:34:16;13.10;99.90
21722;DHT22;11023;48.274;7.794;2023-05-07T05:36:43;13.10;99.90
21722;DHT22;11023;48.274;7.794;2023-05-07T05:39:09;13.20;99.90
21722;DHT22;11023;48.274;7.794;2023-05-07T05:41:34;13.20;99.90
21722;DHT22;11023;48.274;7.794;2023-05-07T05:44:00;13.30;99.90
21722;DHT22;11023;48.274;7.794;2023-05-07T05:46:26;13.30;99.90
21722;DHT22;11023;48.274;7.794;2023-05-07T05:48:51;13.40;99.90
21722;DHT22;11023;48.274;7.794;2023-05-07T05:51:17;13.50;99.90
21722;DHT22;11023;48.274;7.794;2023-05-07T05:53:42;13.70;99.90
21722;DHT22;11023;48.274;7.794;2023-05-07T05:56:08;13.70;99.90
21722;DHT22;11023;48.274;7.794;2023-05-07T05:58:34;13.80;99.90
21722;DHT22;11023;48.274;7.794;2023-05-07T06:00:59;13.90;99.90
21722;DHT22;11023;48.274;7.794;2023-05-07T06:03:27;14.00;99.90
21722;DHT22;11023;48.274;7.794;2023-05-07T06:05:53;14.10;99.90
21722;DHT22;11023;48.274;7.794;2023-05-07T06:08:19;14.20;99.90
21722;DHT22;11023;48.274;7.794;2023-05-07T06:10:45;14.30;99.90
21722;DHT22;11023;48.274;7.794;2023-05-07T06:13:10;14.40;99.90
21722;DHT22;11023;48.274;7.794;2023-05-07T06:15:36;14.50;99.90
21722;DHT22;11023;48.274;7.794;2023-05-07T06:18:02;14.50;99.90
21722;DHT22;11023;48.274;7.794;2023-05-07T06:20:28;14.50;99.90
21722;DHT22;11023;48.274;7.794;2023-05-07T06:22:53;14.60;99.90
21722;DHT22;11023;48.274;7.794;2023-05-07T06:25:19;14.70;99.90
21722;DHT22;11023;48.274;7.794;2023-05-07T06:27:45;14.80;99.90
21722;DHT22;11023;48.274;7.794;2023-05-07T06:30:11;14.90;99.90
21722;DHT22;11023;48.274;7.794;2023-05-07T06:32:37;15.00;99.90
21722;DHT22;11023;48.274;7.794;2023-05-07T06:35:02;15.20;99.90
21722;DHT22;11023;48.274;7.794;2023-05-07T06:37:28;15.30;99.90
21722;DHT22;11023;48.274;7.794;2023-05-07T06:39:54;15.40;99.90
21722;DHT22;11023;48.274;7.794;2023-05-07T06:42:19;15.50;99.90
21722;DHT22;11023;48.274;7.794;2023-05-07T06:44:45;15.60;99.90
21722;DHT22;11023;48.274;7.794;2023-05-07T06:47:11;15.70;99.90
21722;DHT22;11023;48.274;7.794;2023-05-07T06:49:36;15.80;99.90
21722;DHT22;11023;48.274;7.794;2023-05-07T06:52:02;15.80;99.90
21722;DHT22;11023;48.274;7.794;2023-05-07T06:54:28;15.90;99.90
21722;DHT22;11023;48.274;7.794;2023-05-07T06:56:54;16.00;99.90
21722;DHT22;11023;48.274;7.794;2023-05-07T06:59:20;16.00;99.90
21722;DHT22;11023;48.274;7.794;2023-05-07T07:01:46;16.10;99.90
21722;DHT22;11023;48.274;7.794;2023-05-07T07:04:11;16.20;99.90
21722;DHT22;11023;48.274;7.794;2023-05-07T07:06:37;16.20;99.90
21722;DHT22;11023;48.274;7.794;2023-05-07T07:09:03;16.30;99.90
21722;DHT22;11023;48.274;7.794;2023-05-07T07:11:29;16.40;99.90
21722;DHT22;11023;48.274;7.794;2023-05-07T07:13:54;16.50;99.90
21722;DHT22;11023;48.274;7.794;2023-05-07T07:16:21;16.60;99.90
21722;DHT22;11023;48.274;7.794;2023-05-07T07:18:47;16.80;99.90
21722;DHT22;11023;48.274;7.794;2023-05-07T07:21:13;16.90;99.90
21722;DHT22;11023;48.274;7.794;2023-05-07T07:23:40;17.00;99.90
21722;DHT22;11023;48.274;7.794;2023-05-07T07:26:05;17.10;99.90
21722;DHT22;11023;48.274;7.794;2023-05-07T07:28:32;17.20;99.90
21722;DHT22;11023;48.274;7.794;2023-05-07T07:30:58;17.20;99.90
21722;DHT22;11023;48.274;7.794;2023-05-07T07:33:24;17.30;99.90
21722;DHT22;11023;48.274;7.794;2023-05-07T07:35:49;17.30;99.90
21722;DHT22;11023;48.274;7.794;2023-05-07T07:38:15;17.40;99.90
21722;DHT22;11023;48.274;7.794;2023-05-07T07:40:41;17.40;99.90
21722;DHT22;11023;48.274;7.794;2023-05-07T07:43:09;17.50;99.90
21722;DHT22;11023;48.274;7.794;2023-05-07T07:45:34;17.60;99.90
21722;DHT22;11023;48.274;7.794;2023-05-07T07:48:00;17.60;99.90
21722;DHT22;11023;48.274;7.794;2023-05-07T07:50:26;17.60;99.90
21722;DHT22;11023;48.274;7.794;2023-05-07T07:52:52;17.60;99.90
21722;DHT22;11023;48.274;7.794;2023-05-07T07:55:20;17.50;99.90
21722;DHT22;11023;48.274;7.794;2023-05-07T07:57:49;17.50;99.90
21722;DHT22;11023;48.274;7.794;2023-05-07T08:00:15;17.60;99.90
21722;DHT22;11023;48.274;7.794;2023-05-07T08:02:41;17.70;99.90
21722;DHT22;11023;48.274;7.794;2023-05-07T08:05:09;17.80;99.90
21722;DHT22;11023;48.274;7.794;2023-05-07T08:07:35;17.90;99.90
21722;DHT22;11023;48.274;7.794;2023-05-07T08:10:01;17.90;99.90
21722;DHT22;11023;48.274;7.794;2023-05-07T08:12:28;18.00;99.90
21722;DHT22;11023;48.274;7.794;2023-05-07T08:14:56;18.10;99.90
21722;DHT22;11023;48.274;7.794;2023-05-07T08:17:22;18.30;99.90
21722;DHT22;11023;48.274;7.794;2023-05-07T08:19:48;18.40;99.90
21722;DHT22;11023;48.274;7.794;2023-05-07T08:22:14;18.40;99.90
21722;DHT22;11023;48.274;7.794;2023-05-07T08:24:40;18.50;99.90
21722;DHT22;11023;48.274;7.794;2023-05-07T08:27:06;18.60;99.90
21722;DHT22;11023;48.274;7.794;2023-05-07T08:29:31;18.80;99.90
21722;DHT22;11023;48.274;7.794;2023-05-07T08:31:59;18.90;99.90
21722;DHT22;11023;48.274;7.794;2023-05-07T08:34:26;19.10;99.90
21722;DHT22;11023;48.274;7.794;2023-05-07T08:36:51;19.10;99.90
21722;DHT22;11023;48.274;7.794;2023-05-07T08:39:17;19.10;99.90
21722;DHT22;11023;48.274;7.794;2023-05-07T08:41:48;19.20;99.90
21722;DHT22;11023;48.274;7.794;2023-05-07T08:44:16;19.20;99.90
21722;DHT22;11023;48.274;7.794;2023-05-07T08:46:45;19.20;99.90
21722;DHT22;11023;48.274;7.794;2023-05-07T08:49:13;19.10;99.90
21722;DHT22;11023;48.274;7.794;2023-05-07T08:51:41;19.30;99.90
21722;DHT22;11023;48.274;7.794;2023-05-07T08:54:07;19.50;99.90
21722;DHT22;11023;48.274;7.794;2023-05-07T08:56:34;19.70;99.90
21722;DHT22;11023;48.274;7.794;2023-05-07T08:59:00;19.80;99.90
21722;DHT22;11023;48.274;7.794;2023-05-07T09:01:26;20.10;99.90
21722;DHT22;11023;48.274;7.794;2023-05-07T09:03:52;20.20;99.90
21722;DHT22;11023;48.274;7.794;2023-05-07T09:06:18;20.40;99.90
21722;DHT22;11023;48.274;7.794;2023-05-07T09:08:51;20.50;99.90
21722;DHT22;11023;48.274;7.794;2023-05-07T09:11:20;20.60;99.90
21722;DHT22;11023;48.274;7.794;2023-05-07T09:13:46;20.70;99.90
21722;DHT22;11023;48.274;7.794;2023-05-07T09:16:12;20.80;99.90
21722;DHT22;11023;48.274;7.794;2023-05-07T09:18:42;20.90;99.90
21722;DHT22;11023;48.274;7.794;2023-05-07T09:21:14;21.10;99.90
21722;DHT22;11023;48.274;7.794;2023-05-07T09:23:41;21.30;99.90
21722;DHT22;11023;48.274;7.794;2023-05-07T09:26:07;21.50;99.90
21722;DHT22;11023;48.274;7.794;2023-05-07T09:28:41;21.70;99.90
21722;DHT22;11023;48.274;7.794;2023-05-07T09:31:11;22.00;99.90
21722;DHT22;11023;48.274;7.794;2023-05-07T09:33:38;22.10;99.90
21722;DHT22;11023;48.274;7.794;2023-05-07T09:36:04;22.20;99.90
21722;DHT22;11023;48.274;7.794;2023-05-07T09:38:31;22.50;99.90
21722;DHT22;11023;48.274;7.794;2023-05-07T09:43:32;22.80;99.90
21722;DHT22;11023;48.274;7.794;2023-05-07T09:46:13;22.80;99.90
21722;DHT22;11023;48.274;7.794;2023-05-07T09:48:40;22.70;99.90
21722;DHT22;11023;48.274;7.794;2023-05-07T09:51:22;22.80;99.90
21722;DHT22;11023;48.274;7.794;2023-05-07T09:53:48;22.90;99.90
21722;DHT22;11023;48.274;7.794;2023-05-07T09:56:16;23.00;99.90
21722;DHT22;11023;48.274;7.794;2023-05-07T09:58:43;23.10;99.90
21722;DHT22;11023;48.274;7.794;2023-05-07T10:01:11;23.20;99.90
21722;DHT22;11023;48.274;7.794;2023-05-07T10:03:40;23.30;99.90
21722;DHT22;11023;48.274;7.794;2023-05-07T10:06:08;23.30;99.90
21722;DHT22;11023;48.274;7.794;2023-05-07T10:08:35;23.30;99.90
21722;DHT22;11023;48.274;7.794;2023-05-07T10:11:01;23.40;99.90
21722;DHT22;11023;48.274;7.794;2023-05-07T10:13:28;23.40;99.90
21722;DHT22;11023;48.274;7.794;2023-05-07T10:15:55;23.20;99.90
21722;DHT22;11023;48.274;7.794;2023-05-07T10:18:21;23.40;99.90
21722;DHT22;11023;48.274;7.794;2023-05-07T10:21:01;23.50;99.90
21722;DHT22;11023;48.274;7.794;2023-05-07T10:23:27;23.60;99.90
21722;DHT22;11023;48.274;7.794;2023-05-07T10:25:54;23.60;99.90
21722;DHT22;11023;48.274;7.794;2023-05-07T10:28:21;23.70;99.90
21722;DHT22;11023;48.274;7.794;2023-05-07T10:31:06;23.80;99.90
21722;DHT22;11023;48.274;7.794;2023-05-07T10:33:34;23.80;99.90
21722;DHT22;11023;48.274;7.794;2023-05-07T10:36:01;24.00;99.90
21722;DHT22;11023;48.274;7.794;2023-05-07T10:38:29;24.00;99.90
21722;DHT22;11023;48.274;7.794;2023-05-07T10:40:55;24.00;99.90
21722;DHT22;11023;48.274;7.794;2023-05-07T10:43:21;24.10;99.90
21722;DHT22;11023;48.274;7.794;2023-05-07T10:46:09;24.30;99.90
21722;DHT22;11023;48.274;7.794;2023-05-07T10:51:28;24.50;99.90
21722;DHT22;11023;48.274;7.794;2023-05-07T10:54:31;24.60;99.90
21722;DHT22;11023;48.274;7.794;2023-05-07T10:59:57;24.90;99.90
21722;DHT22;11023;48.274;7.794;2023-05-07T11:02:23;24.90;99.90
21722;DHT22;11023;48.274;7.794;2023-05-07T11:05:20;24.80;99.90
21722;DHT22;11023;48.274;7.794;2023-05-07T11:08:01;24.60;99.90
21722;DHT22;11023;48.274;7.794;2023-05-07T11:13:14;24.10;99.90
21722;DHT22;11023;48.274;7.794;2023-05-07T11:15:43;23.90;99.90
21722;DHT22;11023;48.274;7.794;2023-05-07T11:18:10;23.80;99.90
21722;DHT22;11023;48.274;7.794;2023-05-07T11:20:49;23.90;99.90
21722;DHT22;11023;48.274;7.794;2023-05-07T11:26:05;24.10;99.90
21722;DHT22;11023;48.274;7.794;2023-05-07T11:28:36;24.30;99.90
21722;DHT22;11023;48.274;7.794;2023-05-07T11:31:02;24.30;99.90
21722;DHT22;11023;48.274;7.794;2023-05-07T11:33:29;24.20;99.90
21722;DHT22;11023;48.274;7.794;2023-05-07T11:35:56;24.10;99.90
21722;DHT22;11023;48.274;7.794;2023-05-07T11:38:22;24.10;99.90
21722;DHT22;11023;48.274;7.794;2023-05-07T11:40:56;24.10;99.90
21722;DHT22;11023;48.274;7.794;2023-05-07T11:43:22;24.00;99.90
21722;DHT22;11023;48.274;7.794;2023-05-07T11:45:48;23.90;99.90
21722;DHT22;11023;48.274;7.794;2023-05-07T11:48:15;23.90;99.90
21722;DHT22;11023;48.274;7.794;2023-05-07T11:50:59;23.70;99.90
21722;DHT22;11023;48.274;7.794;2023-05-07T11:53:26;23.60;99.90
21722;DHT22;11023;48.274;7.794;2023-05-07T11:55:58;23.50;99.90
21722;DHT22;11023;48.274;7.794;2023-05-07T11:58:24;23.40;99.90
21722;DHT22;11023;48.274;7.794;2023-05-07T12:00:54;23.30;99.90
21722;DHT22;11023;48.274;7.794;2023-05-07T12:03:20;23.20;99.90
21722;DHT22;11023;48.274;7.794;2023-05-07T12:05:47;23.10;99.90
21722;DHT22;11023;48.274;7.794;2023-05-07T12:08:17;23.00;99.90
21722;DHT22;11023;48.274;7.794;2023-05-07T12:10:43;22.90;99.90
21722;DHT22;11023;48.274;7.794;2023-05-07T12:13:20;22.80;99.90
21722;DHT22;11023;48.274;7.794;2023-05-07T12:15:46;22.70;99.90
21722;DHT22;11023;48.274;7.794;2023-05-07T12:18:15;22.60;99.90
21722;DHT22;11023;48.274;7.794;2023-05-07T12:20:42;22.60;99.90
21722;DHT22;11023;48.274;7.794;2023-05-07T12:23:08;22.60;99.90
21722;DHT22;11023;48.274;7.794;2023-05-07T12:25:38;22.60;99.90
21722;DHT22;11023;48.274;7.794;2023-05-07T12:28:04;22.70;99.90
21722;DHT22;11023;48.274;7.794;2023-05-07T12:30:40;22.80;99.90
21722;DHT22;11023;48.274;7.794;2023-05-07T12:33:06;22.80;99.90
21722;DHT22;11023;48.274;7.794;2023-05-07T12:35:36;22.90;99.90
21722;DHT22;11023;48.274;7.794;2023-05-07T12:38:08;22.90;99.90
21722;DHT22;11023;48.274;7.794;2023-05-07T12:40:48;22.90;99.90
21722;DHT22;11023;48.274;7.794;2023-05-07T12:43:17;23.00;99.90
21722;DHT22;11023;48.274;7.794;2023-05-07T12:45:44;23.00;99.90
21722;DHT22;11023;48.274;7.794;2023-05-07T12:48:11;23.10;99.90
21722;DHT22;11023;48.274;7.794;2023-05-07T12:50:37;23.00;99.90
21722;DHT22;11023;48.274;7.794;2023-05-07T12:53:07;22.90;99.90
21722;DHT22;11023;48.274;7.794;2023-05-07T12:55:49;22.90;99.90
21722;DHT22;11023;48.274;7.794;2023-05-07T12:58:22;22.80;99.90
21722;DHT22;11023;48.274;7.794;2023-05-07T13:00:50;22.80;99.90
21722;DHT22;11023;48.274;7.794;2023-05-07T13:03:30;22.90;99.90
21722;DHT22;11023;48.274;7.794;2023-05-07T13:06:03;23.10;99.90
21722;DHT22;11023;48.274;7.794;2023-05-07T13:08:39;23.20;99.90
21722;DHT22;11023;48.274;7.794;2023-05-07T13:11:11;23.10;99.90
21722;DHT22;11023;48.274;7.794;2023-05-07T13:13:38;22.90;99.90
21722;DHT22;11023;48.274;7.794;2023-05-07T13:16:05;23.00;99.90
21722;DHT22;11023;48.274;7.794;2023-05-07T13:18:32;23.10;99.90
21722;DHT22;11023;48.274;7.794;2023-05-07T13:20:59;23.20;99.90
21722;DHT22;11023;48.274;7.794;2023-05-07T13:23:25;23.20;99.90
21722;DHT22;11023;48.274;7.794;2023-05-07T13:25:51;23.10;99.90
21722;DHT22;11023;48.274;7.794;2023-05-07T13:28:21;23.00;99.90
21722;DHT22;11023;48.274;7.794;2023-05-07T13:30:48;22.70;99.90
21722;DHT22;11023;48.274;7.794;2023-05-07T13:33:14;22.40;99.90
21722;DHT22;11023;48.274;7.794;2023-05-07T13:35:41;22.30;99.90
21722;DHT22;11023;48.274;7.794;2023-05-07T13:38:07;22.30;99.90
21722;DHT22;11023;48.274;7.794;2023-05-07T13:40:33;22.10;99.90
21722;DHT22;11023;48.274;7.794;2023-05-07T13:43:00;22.00;99.90
21722;DHT22;11023;48.274;7.794;2023-05-07T13:45:29;21.90;99.90
21722;DHT22;11023;48.274;7.794;2023-05-07T13:47:56;21.90;99.90
21722;DHT22;11023;48.274;7.794;2023-05-07T13:50:22;21.80;99.90
21722;DHT22;11023;48.274;7.794;2023-05-07T13:52:47;21.70;99.90
21722;DHT22;11023;48.274;7.794;2023-05-07T13:55:17;21.60;99.90
21722;DHT22;11023;48.274;7.794;2023-05-07T13:57:43;21.50;99.90
21722;DHT22;11023;48.274;7.794;2023-05-07T14:00:09;21.40;99.90
21722;DHT22;11023;48.274;7.794;2023-05-07T14:02:35;21.40;99.90
21722;DHT22;11023;48.274;7.794;2023-05-07T14:05:01;21.40;99.90
21722;DHT22;11023;48.274;7.794;2023-05-07T14:07:26;21.40;99.90
21722;DHT22;11023;48.274;7.794;2023-05-07T14:09:52;21.40;99.90
21722;DHT22;11023;48.274;7.794;2023-05-07T14:12:18;21.40;99.90
21722;DHT22;11023;48.274;7.794;2023-05-07T14:14:43;21.40;99.90
21722;DHT22;11023;48.274;7.794;2023-05-07T14:17:10;21.30;99.90
21722;DHT22;11023;48.274;7.794;2023-05-07T14:19:36;21.40;99.90
21722;DHT22;11023;48.274;7.794;2023-05-07T14:22:02;21.50;99.90
21722;DHT22;11023;48.274;7.794;2023-05-07T14:24:27;21.40;99.90
21722;DHT22;11023;48.274;7.794;2023-05-07T14:26:53;21.50;99.90
21722;DHT22;11023;48.274;7.794;2023-05-07T14:29:19;21.50;99.90
21722;DHT22;11023;48.274;7.794;2023-05-07T14:31:45;21.40;99.90
21722;DHT22;11023;48.274;7.794;2023-05-07T14:34:11;21.50;99.90
21722;DHT22;11023;48.274;7.794;2023-05-07T14:36:36;21.70;99.90
21722;DHT22;11023;48.274;7.794;2023-05-07T14:39:03;21.80;99.90
21722;DHT22;11023;48.274;7.794;2023-05-07T14:41:29;22.00;99.90
21722;DHT22;11023;48.274;7.794;2023-05-07T14:43:55;22.00;99.90
21722;DHT22;11023;48.274;7.794;2023-05-07T14:46:20;22.10;99.90
21722;DHT22;11023;48.274;7.794;2023-05-07T14:48:46;22.10;99.90
21722;DHT22;11023;48.274;7.794;2023-05-07T14:51:13;22.00;99.90
21722;DHT22;11023;48.274;7.794;2023-05-07T14:53:40;21.90;99.90
21722;DHT22;11023;48.274;7.794;2023-05-07T14:56:06;21.80;99.90
21722;DHT22;11023;48.274;7.794;2023-05-07T14:58:32;21.80;99.90
21722;DHT22;11023;48.274;7.794;2023-05-07T15:00:59;21.70;99.90
21722;DHT22;11023;48.274;7.794;2023-05-07T15:03:25;21.50;99.90
21722;DHT22;11023;48.274;7.794;2023-05-07T15:05:51;21.60;99.90
21722;DHT22;11023;48.274;7.794;2023-05-07T15:08:17;21.50;99.90
21722;DHT22;11023;48.274;7.794;2023-05-07T15:10:43;21.50;99.90
21722;DHT22;11023;48.274;7.794;2023-05-07T15:13:09;21.50;99.90
21722;DHT22;11023;48.274;7.794;2023-05-07T15:15:36;21.50;99.90
21722;DHT22;11023;48.274;7.794;2023-05-07T15:18:02;21.60;99.90
21722;DHT22;11023;48.274;7.794;2023-05-07T15:20:28;21.50;99.90
21722;DHT22;11023;48.274;7.794;2023-05-07T15:22:54;21.50;99.90
21722;DHT22;11023;48.274;7.794;2023-05-07T15:25:20;21.60;99.90
21722;DHT22;11023;48.274;7.794;2023-05-07T15:27:46;21.70;99.90
21722;DHT22;11023;48.274;7.794;2023-05-07T15:30:12;21.80;99.90
21722;DHT22;11023;48.274;7.794;2023-05-07T15:32:40;21.90;99.90
21722;DHT22;11023;48.274;7.794;2023-05-07T15:35:06;21.80;99.90
21722;DHT22;11023;48.274;7.794;2023-05-07T15:37:32;21.80;99.90
21722;DHT22;11023;48.274;7.794;2023-05-07T15:39:57;21.90;99.90
21722;DHT22;11023;48.274;7.794;2023-05-07T15:42:23;22.00;99.90
21722;DHT22;11023;48.274;7.794;2023-05-07T15:44:49;22.00;99.90
21722;DHT22;11023;48.274;7.794;2023-05-07T15:47:15;22.00;99.90